createdAt,value
2023-05-24T00:00:43.227Z,3.63
2023-05-24T00:03:10.225Z,4.47
2023-05-24T00:05:41.247Z,3.60
2023-05-24T00:08:07.898Z,4.15
2023-05-24T00:10:34.524Z,4.00
2023-05-24T00:13:01.147Z,4.53
2023-05-24T00:15:27.765Z,3.97
2023-05-24T00:17:54.427Z,4.30
2023-05-24T00:20:21.269Z,3.63
2023-05-24T00:22:51.844Z,3.75
2023-05-24T00:25:18.535Z,4.15
2023-05-24T00:27:45.514Z,4.97
2023-05-24T00:30:12.560Z,3.40
2023-05-24T00:32:39.295Z,4.30
2023-05-24T00:35:06.305Z,4.13
2023-05-24T00:37:32.966Z,4.13
2023-05-24T00:39:59.768Z,5.20
2023-05-24T00:42:26.346Z,3.50
2023-05-24T00:44:53.011Z,4.30
2023-05-24T00:47:19.802Z,4.07
2023-05-24T00:49:46.842Z,3.72
2023-05-24T00:52:13.886Z,3.72
2023-05-24T00:54:40.868Z,4.85
2023-05-24T00:57:07.884Z,4.13
2023-05-24T00:59:34.823Z,5.30
2023-05-24T01:02:01.557Z,5.40
2023-05-24T01:04:28.777Z,5.03
2023-05-24T01:07:32.322Z,4.40
2023-05-24T01:10:14.093Z,5.47
2023-05-24T01:12:53.815Z,4.55
2023-05-24T01:15:43.765Z,5.05
2023-05-24T01:18:26.141Z,5.03
2023-05-24T01:21:18.066Z,5.55
2023-05-24T01:24:07.842Z,5.32
2023-05-24T01:26:42.556Z,5.28
2023-05-24T01:29:10.877Z,4.60
2023-05-24T01:31:37.855Z,4.60
2023-05-24T01:34:04.551Z,5.00
2023-05-24T01:36:31.173Z,5.65
2023-05-24T01:38:57.843Z,4.97
2023-05-24T01:41:38.203Z,4.97
2023-05-24T01:44:13.318Z,4.20
2023-05-24T01:46:39.990Z,5.30
2023-05-24T01:49:13.366Z,6.03
2023-05-24T01:52:20.959Z,4.78
2023-05-24T01:54:51.574Z,5.18
2023-05-24T01:57:21.334Z,5.15
2023-05-24T01:59:48.402Z,4.50
2023-05-24T02:02:15.257Z,5.20
2023-05-24T02:04:42.149Z,5.55
2023-05-24T02:07:08.818Z,5.75
2023-05-24T02:09:36.121Z,5.63
2023-05-24T02:12:02.759Z,4.22
2023-05-24T02:14:29.400Z,5.32
2023-05-24T02:16:59.038Z,5.35
2023-05-24T02:19:25.942Z,5.18
2023-05-24T02:21:53.171Z,4.50
2023-05-24T02:24:19.803Z,6.25
2023-05-24T02:26:46.587Z,6.63
2023-05-24T02:29:13.294Z,5.47
2023-05-24T02:31:40.078Z,5.25
2023-05-24T02:34:07.676Z,5.72
2023-05-24T02:36:36.361Z,5.82
2023-05-24T02:39:04.300Z,5.90
2023-05-24T02:41:31.020Z,5.40
2023-05-24T02:43:57.622Z,5.13
2023-05-24T02:46:24.406Z,5.03
2023-05-24T02:48:51.295Z,5.95
2023-05-24T02:51:17.956Z,5.78
2023-05-24T02:53:45.500Z,5.60
2023-05-24T02:56:13.794Z,5.78
2023-05-24T02:58:41.240Z,6.10
2023-05-24T03:01:08.683Z,5.30
2023-05-24T03:03:35.583Z,5.97
2023-05-24T03:06:02.377Z,5.07
2023-05-24T03:08:29.347Z,5.35
2023-05-24T03:10:55.987Z,5.15
2023-05-24T03:13:22.686Z,5.05
2023-05-24T03:15:49.460Z,6.40
2023-05-24T03:18:16.098Z,6.30
2023-05-24T03:20:42.890Z,5.78
2023-05-24T03:23:12.597Z,6.15
2023-05-24T03:25:39.287Z,5.55
2023-05-24T03:28:05.958Z,6.57
2023-05-24T03:30:33.144Z,5.85
2023-05-24T03:32:59.960Z,6.85
2023-05-24T03:35:27.008Z,5.72
2023-05-24T03:37:53.764Z,7.05
2023-05-24T03:40:20.604Z,5.95
2023-05-24T03:42:47.229Z,6.05
2023-05-24T03:45:17.509Z,6.13
2023-05-24T03:47:46.149Z,6.57
2023-05-24T03:50:14.298Z,7.03
2023-05-24T03:52:42.609Z,5.80
2023-05-24T03:55:09.272Z,6.13
2023-05-24T03:57:35.915Z,6.25
2023-05-24T04:00:02.592Z,6.05
2023-05-24T04:02:29.391Z,5.65
2023-05-24T04:04:56.017Z,7.03
2023-05-24T04:07:24.618Z,5.78
2023-05-24T04:09:51.302Z,6.65
2023-05-24T04:12:17.938Z,6.38
2023-05-24T04:14:44.647Z,5.28
2023-05-24T04:17:11.328Z,5.95
2023-05-24T04:19:38.153Z,6.85
2023-05-24T04:22:05.072Z,5.72
2023-05-24T04:24:31.768Z,6.03
2023-05-24T04:26:58.581Z,7.05
2023-05-24T04:29:26.708Z,5.82
2023-05-24T04:31:53.439Z,5.03
2023-05-24T04:34:22.387Z,6.18
2023-05-24T04:36:50.674Z,6.28
2023-05-24T04:39:18.944Z,6.65
2023-05-24T04:41:45.730Z,6.28
2023-05-24T04:44:12.362Z,5.53
2023-05-24T04:46:39.039Z,5.97
2023-05-24T04:49:06.010Z,5.93
2023-05-24T04:51:33.175Z,6.90
2023-05-24T04:54:01.514Z,5.63
2023-05-24T04:56:28.092Z,6.25
2023-05-24T04:58:54.739Z,5.97
2023-05-24T05:01:21.682Z,6.13
2023-05-24T05:03:48.524Z,6.35
2023-05-24T05:06:15.362Z,5.93
2023-05-24T05:08:42.025Z,5.47
2023-05-24T05:11:08.647Z,4.97
2023-05-24T05:13:35.665Z,5.32
2023-05-24T05:16:02.870Z,4.90
2023-05-24T05:18:29.559Z,4.43
2023-05-24T05:20:56.228Z,5.30
2023-05-24T05:23:22.937Z,4.95
2023-05-24T05:25:49.691Z,4.97
2023-05-24T05:28:17.076Z,5.18
2023-05-24T05:30:43.982Z,4.85
2023-05-24T05:33:10.986Z,5.15
2023-05-24T05:35:37.916Z,4.95
2023-05-24T05:38:04.555Z,4.55
2023-05-24T05:40:31.619Z,4.85
2023-05-24T05:42:58.293Z,5.72
2023-05-24T05:45:24.948Z,5.13
2023-05-24T05:47:51.645Z,4.53
2023-05-24T05:50:18.301Z,5.60
2023-05-24T05:52:45.017Z,4.40
2023-05-24T05:55:12.355Z,5.00
2023-05-24T05:57:39.054Z,4.05
2023-05-24T06:00:06.498Z,5.32
2023-05-24T06:02:33.210Z,4.38
2023-05-24T06:05:00.721Z,4.72
2023-05-24T06:07:27.371Z,5.32
2023-05-24T06:09:54.096Z,5.15
2023-05-24T06:12:20.739Z,5.28
2023-05-24T06:14:50.712Z,5.20
2023-05-24T06:17:18.662Z,4.97
2023-05-24T06:19:45.723Z,4.57
2023-05-24T06:22:12.777Z,5.13
2023-05-24T06:24:40.035Z,4.57
2023-05-24T06:27:06.633Z,5.20
2023-05-24T06:29:33.307Z,4.80
2023-05-24T06:32:00.149Z,5.03
2023-05-24T06:34:27.445Z,5.32
2023-05-24T06:36:54.070Z,5.32
2023-05-24T06:39:21.031Z,5.82
2023-05-24T06:41:48.354Z,4.88
2023-05-24T06:44:16.458Z,6.53
2023-05-24T06:46:43.428Z,5.22
2023-05-24T06:49:10.143Z,5.53
2023-05-24T06:51:38.135Z,6.57
2023-05-24T06:54:04.783Z,5.35
2023-05-24T06:56:31.431Z,5.88
2023-05-24T06:58:59.485Z,5.53
2023-05-24T07:01:28.889Z,5.90
2023-05-24T07:03:55.539Z,4.97
2023-05-24T07:06:22.481Z,6.47
2023-05-24T07:08:49.127Z,6.38
2023-05-24T07:11:16.086Z,5.20
2023-05-24T07:13:42.799Z,5.63
2023-05-24T07:16:09.508Z,5.32
2023-05-24T07:18:36.453Z,4.70
2023-05-24T07:21:03.111Z,4.90
2023-05-24T07:23:29.848Z,5.53
2023-05-24T07:25:56.479Z,5.20
2023-05-24T07:28:23.202Z,4.97
2023-05-24T07:30:51.353Z,5.47
2023-05-24T07:33:18.211Z,5.65
2023-05-24T07:35:51.164Z,4.88
2023-05-24T07:38:18.537Z,5.15
2023-05-24T07:40:45.467Z,4.50
2023-05-24T07:43:12.480Z,4.43
2023-05-24T07:45:39.139Z,5.20
2023-05-24T07:48:06.291Z,5.40
2023-05-24T07:50:33.235Z,4.78
2023-05-24T07:52:59.869Z,4.93
2023-05-24T07:55:28.144Z,3.97
2023-05-24T07:57:54.854Z,4.13
2023-05-24T08:00:21.831Z,4.22
2023-05-24T08:02:48.824Z,4.60
2023-05-24T08:05:16.713Z,5.10
2023-05-24T08:07:43.445Z,4.10
2023-05-24T08:10:13.876Z,4.20
2023-05-24T08:12:41.241Z,4.45
2023-05-24T08:15:08.509Z,4.32
2023-05-24T08:17:35.387Z,4.93
2023-05-24T08:20:04.207Z,4.28
2023-05-24T08:22:31.231Z,4.30
2023-05-24T08:24:58.607Z,4.50
2023-05-24T08:27:28.761Z,4.45
2023-05-24T08:29:57.131Z,4.28
2023-05-24T08:32:23.942Z,4.57
2023-05-24T08:34:50.600Z,5.25
2023-05-24T08:37:20.576Z,4.32
2023-05-24T08:39:47.315Z,4.88
2023-05-24T08:42:15.699Z,4.20
2023-05-24T08:44:48.258Z,4.75
2023-05-24T08:47:15.858Z,5.07
2023-05-24T08:49:43.152Z,4.63
2023-05-24T08:52:11.831Z,5.05
2023-05-24T08:54:38.927Z,4.32
2023-05-24T08:57:06.882Z,4.85
2023-05-24T08:59:33.588Z,4.28
2023-05-24T09:02:01.486Z,5.28
2023-05-24T09:04:29.183Z,4.35
2023-05-24T09:06:56.931Z,4.80
2023-05-24T09:09:28.013Z,5.35
2023-05-24T09:11:59.260Z,5.05
2023-05-24T09:14:25.958Z,4.30
2023-05-24T09:16:52.674Z,5.15
2023-05-24T09:19:20.032Z,4.50
2023-05-24T09:21:48.526Z,6.63
2023-05-24T09:24:16.017Z,4.65
2023-05-24T09:26:42.637Z,4.50
2023-05-24T09:29:09.386Z,4.45
2023-05-24T09:31:37.335Z,3.80
2023-05-24T09:34:04.802Z,4.13
2023-05-24T09:36:36.891Z,4.30
2023-05-24T09:39:11.569Z,4.60
2023-05-24T09:41:38.918Z,4.32
2023-05-24T09:44:06.231Z,4.85
2023-05-24T09:46:38.803Z,3.88
2023-05-24T09:49:08.105Z,4.75
2023-05-24T09:51:38.915Z,4.07
2023-05-24T09:54:05.746Z,5.32
2023-05-24T09:56:35.869Z,4.63
2023-05-24T09:59:08.490Z,4.35
2023-05-24T10:01:36.246Z,4.68
2023-05-24T10:04:09.358Z,4.25
2023-05-24T10:06:38.703Z,3.53
2023-05-24T10:09:09.796Z,5.00
2023-05-24T10:11:40.125Z,3.95
2023-05-24T10:14:07.533Z,5.30
2023-05-24T10:16:34.189Z,4.43
2023-05-24T10:19:01.009Z,4.32
2023-05-24T10:21:29.468Z,5.00
2023-05-24T10:24:01.961Z,4.63
2023-05-24T10:26:32.879Z,4.38
2023-05-24T10:29:06.840Z,4.63
2023-05-24T10:31:37.318Z,4.97
2023-05-24T10:34:08.717Z,5.10
2023-05-24T10:36:36.993Z,4.22
2023-05-24T10:39:04.341Z,4.90
2023-05-24T10:41:39.125Z,5.10
2023-05-24T10:44:12.027Z,5.15
2023-05-24T10:47:18.108Z,4.38
2023-05-24T10:49:51.516Z,5.32
2023-05-24T10:52:19.047Z,5.32
2023-05-24T10:55:21.293Z,5.20
2023-05-24T10:57:47.994Z,5.13
2023-05-24T11:00:34.014Z,5.28
2023-05-24T11:03:10.328Z,4.88
2023-05-24T11:05:46.813Z,5.00
2023-05-24T11:08:13.942Z,5.18
2023-05-24T11:10:44.176Z,5.68
2023-05-24T11:13:11.703Z,5.20
2023-05-24T11:15:38.391Z,6.40
2023-05-24T11:18:14.123Z,5.07
2023-05-24T11:20:48.136Z,5.43
2023-05-24T11:23:16.947Z,5.18
2023-05-24T11:25:45.187Z,5.40
2023-05-24T11:28:12.651Z,4.53
2023-05-24T11:30:47.344Z,4.57
2023-05-24T11:33:14.831Z,4.65
2023-05-24T11:35:42.052Z,5.03
2023-05-24T11:38:15.576Z,4.82
2023-05-24T11:40:46.294Z,4.00
2023-05-24T11:43:16.657Z,4.75
2023-05-24T11:45:46.631Z,4.25
2023-05-24T11:48:13.375Z,4.82
2023-05-24T11:50:49.892Z,5.03
2023-05-24T11:53:19.661Z,5.55
2023-05-24T11:55:46.527Z,5.40
2023-05-24T11:58:50.169Z,4.95
2023-05-24T12:01:27.532Z,5.13
2023-05-24T12:03:55.141Z,4.80
2023-05-24T12:06:22.395Z,4.55
2023-05-24T12:08:49.940Z,4.72
2023-05-24T12:11:18.025Z,4.90
2023-05-24T12:13:44.766Z,5.75
2023-05-24T12:16:13.205Z,5.28
2023-05-24T12:18:45.855Z,5.15
2023-05-24T12:21:20.190Z,4.95
2023-05-24T12:23:48.499Z,4.82
2023-05-24T12:26:19.137Z,6.15
2023-05-24T12:28:45.832Z,5.15
2023-05-24T12:31:12.478Z,5.03
2023-05-24T12:33:39.684Z,5.20
2023-05-24T12:36:07.791Z,5.15
2023-05-24T12:38:34.452Z,5.00
2023-05-24T12:41:13.057Z,4.43
2023-05-24T12:43:44.572Z,4.90
2023-05-24T12:46:11.560Z,4.85
2023-05-24T12:48:38.231Z,4.55
2023-05-24T12:51:04.868Z,4.78
2023-05-24T12:53:31.610Z,5.50
2023-05-24T12:56:00.447Z,5.07
2023-05-24T12:58:27.102Z,5.32
2023-05-24T13:00:54.383Z,5.82
2023-05-24T13:03:21.229Z,4.75
2023-05-24T13:05:47.987Z,4.85
2023-05-24T13:08:14.796Z,5.05
2023-05-24T13:10:41.729Z,4.90
2023-05-24T13:13:08.657Z,4.65
2023-05-24T13:15:35.980Z,4.45
2023-05-24T13:18:02.785Z,5.28
2023-05-24T13:20:29.511Z,4.90
2023-05-24T13:22:56.200Z,5.15
2023-05-24T13:25:22.951Z,5.53
2023-05-24T13:27:49.645Z,5.35
2023-05-24T13:30:17.567Z,5.25
2023-05-24T13:32:44.617Z,4.78
2023-05-24T13:35:11.486Z,5.25
2023-05-24T13:37:38.202Z,5.78
2023-05-24T13:40:06.274Z,4.53
2023-05-24T13:42:33.269Z,5.55
2023-05-24T13:45:00.108Z,4.63
2023-05-24T13:47:39.437Z,4.93
2023-05-24T13:50:07.801Z,4.55
2023-05-24T13:52:34.950Z,4.95
2023-05-24T13:55:04.796Z,4.80
2023-05-24T13:57:49.757Z,4.88
2023-05-24T14:00:18.716Z,4.72
2023-05-24T14:02:45.417Z,5.80
2023-05-24T14:05:25.054Z,4.63
2023-05-24T14:07:53.245Z,5.47
2023-05-24T14:10:21.581Z,5.63
2023-05-24T14:12:59.511Z,4.40
2023-05-24T14:15:35.219Z,5.30
2023-05-24T14:18:07.753Z,4.78
2023-05-24T14:20:37.758Z,4.80
2023-05-24T14:23:05.125Z,4.22
2023-05-24T14:25:32.146Z,4.38
2023-05-24T14:27:59.365Z,4.40
2023-05-24T14:30:26.985Z,4.80
2023-05-24T14:32:53.677Z,4.43
2023-05-24T14:35:21.004Z,4.70
2023-05-24T14:37:47.806Z,4.10
2023-05-24T14:40:19.853Z,4.45
2023-05-24T14:42:46.919Z,4.15
2023-05-24T14:45:13.582Z,4.50
2023-05-24T14:47:40.342Z,4.10
2023-05-24T14:50:07.539Z,4.03
2023-05-24T14:52:34.159Z,4.63
2023-05-24T14:55:00.812Z,4.97
2023-05-24T14:57:27.440Z,4.72
2023-05-24T14:59:54.107Z,3.70
2023-05-24T15:02:20.860Z,4.20
2023-05-24T15:04:47.552Z,3.85
2023-05-24T15:07:14.467Z,3.63
2023-05-24T15:09:41.185Z,4.32
2023-05-24T15:12:08.635Z,4.30
2023-05-24T15:14:35.333Z,4.20
2023-05-24T15:17:02.190Z,4.60
2023-05-24T15:19:28.860Z,4.32
2023-05-24T15:21:55.545Z,4.40
2023-05-24T15:24:22.173Z,3.95
2023-05-24T15:26:48.891Z,4.70
2023-05-24T15:29:16.718Z,3.97
2023-05-24T15:31:43.727Z,4.80
2023-05-24T15:34:10.426Z,4.50
2023-05-24T15:36:37.899Z,3.85
2023-05-24T15:39:06.057Z,3.65
2023-05-24T15:41:33.027Z,4.07
2023-05-24T15:44:02.718Z,4.20
2023-05-24T15:46:29.391Z,4.65
2023-05-24T15:48:56.113Z,4.30
2023-05-24T15:52:01.526Z,4.60
2023-05-24T15:54:09.882Z,4.03
2023-05-24T15:56:36.478Z,4.30
2023-05-24T15:59:03.153Z,4.32
2023-05-24T16:01:29.841Z,4.13
2023-05-24T16:03:56.548Z,4.10
2023-05-24T16:06:23.283Z,4.00
2023-05-24T16:08:50.000Z,3.92
2023-05-24T16:11:16.836Z,3.45
2023-05-24T16:13:43.498Z,3.75
2023-05-24T16:16:10.219Z,3.95
2023-05-24T16:18:37.232Z,4.00
2023-05-24T16:21:04.088Z,4.03
2023-05-24T16:23:30.922Z,3.88
2023-05-24T16:25:57.627Z,3.65
2023-05-24T16:28:25.101Z,3.60
2023-05-24T16:30:55.829Z,3.25
2023-05-24T16:33:23.613Z,3.47
2023-05-24T16:35:55.351Z,3.83
2023-05-24T16:38:26.100Z,3.50
2023-05-24T16:40:53.886Z,4.15
2023-05-24T16:43:21.582Z,3.72
2023-05-24T16:45:48.442Z,3.10
2023-05-24T16:48:15.395Z,3.20
2023-05-24T16:50:42.557Z,3.63
2023-05-24T16:53:09.437Z,3.25
2023-05-24T16:55:36.263Z,3.40
2023-05-24T16:58:03.596Z,3.03
2023-05-24T17:00:30.185Z,3.33
2023-05-24T17:02:59.418Z,3.05
2023-05-24T17:05:26.317Z,3.35
2023-05-24T17:07:54.370Z,3.10
2023-05-24T17:10:23.602Z,3.20
2023-05-24T17:12:53.676Z,3.15
2023-05-24T17:15:28.660Z,2.75
2023-05-24T17:17:56.386Z,3.90
2023-05-24T17:20:31.768Z,3.58
2023-05-24T17:23:00.566Z,3.20
2023-05-24T17:25:27.743Z,2.75
2023-05-24T17:28:34.365Z,3.38
2023-05-24T17:31:01.890Z,3.28
2023-05-24T17:33:30.660Z,3.45
2023-05-24T17:35:58.014Z,2.60
2023-05-24T17:38:25.906Z,3.08
2023-05-24T17:41:02.149Z,3.30
2023-05-24T17:43:29.725Z,3.08
2023-05-24T17:46:07.054Z,3.05
2023-05-24T17:48:43.378Z,2.80
2023-05-24T17:51:10.640Z,3.08
2023-05-24T17:53:43.369Z,3.45
2023-05-24T17:56:10.204Z,3.50
2023-05-24T17:58:40.340Z,2.65
2023-05-24T18:01:12.755Z,2.95
2023-05-24T18:03:40.934Z,2.80
2023-05-24T18:06:08.928Z,3.05
2023-05-24T18:08:38.304Z,3.33
2023-05-24T18:11:08.862Z,2.88
2023-05-24T18:13:40.465Z,3.00
2023-05-24T18:16:08.608Z,2.90
2023-05-24T18:18:35.952Z,3.20
2023-05-24T18:21:02.685Z,3.03
2023-05-24T18:23:38.531Z,2.95
2023-05-24T18:26:10.115Z,3.95
2023-05-24T18:28:37.954Z,3.72
2023-05-24T18:31:10.592Z,3.55
2023-05-24T18:33:46.673Z,3.40
2023-05-24T18:36:18.834Z,4.10
2023-05-24T18:38:47.495Z,3.72
2023-05-24T18:41:15.038Z,4.13
2023-05-24T18:43:43.167Z,4.30
2023-05-24T18:46:13.594Z,4.45
2023-05-24T18:48:43.843Z,3.35
2023-05-24T18:51:10.687Z,3.63
2023-05-24T18:53:37.435Z,3.88
2023-05-24T18:56:04.253Z,4.97
2023-05-24T18:58:31.224Z,3.95
2023-05-24T19:00:57.917Z,3.45
2023-05-24T19:03:25.235Z,3.72
2023-05-24T19:05:52.026Z,3.63
2023-05-24T19:08:18.686Z,3.60
2023-05-24T19:10:45.352Z,4.13
2023-05-24T19:13:12.029Z,3.35
2023-05-24T19:15:38.721Z,3.95
2023-05-24T19:18:06.028Z,3.42
2023-05-24T19:20:32.782Z,3.70
2023-05-24T19:22:59.545Z,4.10
2023-05-24T19:25:26.190Z,3.40
2023-05-24T19:27:59.235Z,3.75
2023-05-24T19:30:26.979Z,3.75
2023-05-24T19:32:53.816Z,3.70
2023-05-24T19:35:21.095Z,3.85
2023-05-24T19:37:47.782Z,3.90
2023-05-24T19:40:14.445Z,3.15
2023-05-24T19:42:41.205Z,4.28
2023-05-24T19:45:09.494Z,3.20
2023-05-24T19:47:36.363Z,3.17
2023-05-24T19:50:03.338Z,3.38
2023-05-24T19:52:30.074Z,4.03
2023-05-24T19:54:56.740Z,4.00
2023-05-24T19:57:23.430Z,4.07
2023-05-24T19:59:50.045Z,3.42
2023-05-24T20:02:16.761Z,3.92
2023-05-24T20:04:44.036Z,3.30
2023-05-24T20:07:11.082Z,3.42
2023-05-24T20:09:37.796Z,4.10
2023-05-24T20:12:04.733Z,4.85
2023-05-24T20:14:31.770Z,3.75
2023-05-24T20:16:59.452Z,3.40
2023-05-24T20:19:27.223Z,3.70
2023-05-24T20:21:54.016Z,3.90
2023-05-24T20:24:20.677Z,3.85
2023-05-24T20:26:47.442Z,4.15
2023-05-24T20:29:14.228Z,3.80
2023-05-24T20:31:41.594Z,3.67
2023-05-24T20:34:08.423Z,3.45
2023-05-24T20:36:35.138Z,3.25
2023-05-24T20:39:01.890Z,3.38
2023-05-24T20:41:30.564Z,3.22
2023-05-24T20:43:57.475Z,3.28
2023-05-24T20:46:24.218Z,4.38
2023-05-24T20:48:51.613Z,3.72
2023-05-24T20:51:19.416Z,4.45
2023-05-24T20:53:46.866Z,4.28
2023-05-24T20:56:13.605Z,3.97
2023-05-24T20:58:41.501Z,3.80
2023-05-24T21:01:08.765Z,4.22
2023-05-24T21:03:35.774Z,4.47
2023-05-24T21:06:02.859Z,4.30
2023-05-24T21:08:29.644Z,3.92
2023-05-24T21:10:56.731Z,3.85
2023-05-24T21:13:25.513Z,4.25
2023-05-24T21:15:52.543Z,4.32
2023-05-24T21:18:19.253Z,4.72
2023-05-24T21:20:46.151Z,4.35
2023-05-24T21:23:12.928Z,4.43
2023-05-24T21:25:39.820Z,5.05
2023-05-24T21:28:06.468Z,4.40
2023-05-24T21:30:33.156Z,4.03
2023-05-24T21:32:59.868Z,4.40
2023-05-24T21:35:26.834Z,4.28
2023-05-24T21:37:54.071Z,4.97
2023-05-24T21:40:20.902Z,4.28
2023-05-24T21:42:47.516Z,3.70
2023-05-24T21:45:14.179Z,4.43
2023-05-24T21:47:40.842Z,4.15
2023-05-24T21:50:07.998Z,4.00
2023-05-24T21:52:34.806Z,3.70
2023-05-24T21:55:01.480Z,4.10
2023-05-24T21:57:28.153Z,3.65
2023-05-24T21:59:55.066Z,4.47
2023-05-24T22:02:21.865Z,4.47
2023-05-24T22:04:49.004Z,3.97
2023-05-24T22:07:15.870Z,4.15
2023-05-24T22:09:42.636Z,4.15
2023-05-24T22:12:09.302Z,3.95
2023-05-24T22:14:36.080Z,5.00
2023-05-24T22:17:02.697Z,3.92
2023-05-24T22:19:39.996Z,4.63
2023-05-24T22:22:10.405Z,4.85
2023-05-24T22:24:37.141Z,4.20
2023-05-24T22:27:03.994Z,4.25
2023-05-24T22:29:30.782Z,4.35
2023-05-24T22:31:57.572Z,4.38
2023-05-24T22:34:28.534Z,4.65
2023-05-24T22:36:55.648Z,5.45
2023-05-24T22:39:22.322Z,4.82
2023-05-24T22:41:49.471Z,4.60
2023-05-24T22:44:16.726Z,4.13
2023-05-24T22:46:43.538Z,4.15
2023-05-24T22:49:13.348Z,4.95
2023-05-24T22:51:44.401Z,4.10
2023-05-24T22:54:11.800Z,4.05
2023-05-24T22:56:38.980Z,4.43
2023-05-24T22:59:06.548Z,5.07
2023-05-24T23:01:33.888Z,4.03
2023-05-24T23:04:18.369Z,4.47
2023-05-24T23:06:46.263Z,4.30
2023-05-24T23:09:13.253Z,4.28
2023-05-24T23:11:40.046Z,4.50
2023-05-24T23:14:09.013Z,4.47
2023-05-24T23:16:45.546Z,4.30
2023-05-24T23:19:18.337Z,4.30
2023-05-24T23:21:45.543Z,4.30
2023-05-24T23:24:14.780Z,4.00
2023-05-24T23:26:42.294Z,4.78
2023-05-24T23:29:09.254Z,4.93
2023-05-24T23:31:36.210Z,6.25
2023-05-24T23:34:02.982Z,5.18
2023-05-24T23:36:29.742Z,5.25
2023-05-24T23:38:56.395Z,4.78
2023-05-24T23:41:23.042Z,4.55
2023-05-24T23:43:49.747Z,4.30
2023-05-24T23:46:17.213Z,4.75
2023-05-24T23:48:46.039Z,5.32
2023-05-24T23:51:12.780Z,4.55
2023-05-24T23:53:39.377Z,4.80
2023-05-24T23:56:06.099Z,4.70
2023-05-24T23:58:33.566Z,4.43
